createdAt,value
2018-03-08T00:00:29.994Z,17.70
2018-03-08T00:02:57.558Z,16.50
2018-03-08T00:05:25.110Z,18.73
2018-03-08T00:07:52.729Z,16.30
2018-03-08T00:10:21.545Z,17.62
2018-03-08T00:12:49.173Z,17.70
2018-03-08T00:15:16.842Z,20.63
2018-03-08T00:17:44.416Z,18.95
2018-03-08T00:20:12.044Z,20.07
2018-03-08T00:22:40.036Z,18.73
2018-03-08T00:25:08.433Z,17.07
2018-03-08T00:27:37.308Z,19.00
2018-03-08T00:30:06.356Z,21.67
2018-03-08T00:32:37.173Z,17.40
2018-03-08T00:35:06.157Z,16.50
2018-03-08T00:37:33.755Z,18.08
2018-03-08T00:40:02.349Z,16.07
2018-03-08T00:42:30.947Z,18.20
2018-03-08T00:44:58.492Z,21.30
2018-03-08T00:47:27.126Z,19.93
2018-03-08T00:49:55.036Z,17.73
2018-03-08T00:52:22.877Z,17.03
2018-03-08T00:54:50.721Z,17.77
2018-03-08T00:57:18.253Z,19.23
2018-03-08T00:59:46.762Z,15.32
2018-03-08T01:02:14.340Z,16.43
2018-03-08T01:04:41.910Z,16.07
2018-03-08T01:07:09.452Z,14.77
2018-03-08T01:09:38.765Z,15.23
2018-03-08T01:12:08.580Z,16.33
2018-03-08T01:14:36.817Z,15.47
2018-03-08T01:17:04.387Z,21.40
2018-03-08T01:19:32.741Z,17.20
2018-03-08T01:22:00.313Z,18.20
2018-03-08T01:24:27.930Z,16.07
2018-03-08T01:26:55.484Z,14.20
2018-03-08T01:29:23.010Z,17.73
2018-03-08T01:31:50.638Z,16.30
2018-03-08T01:34:18.201Z,14.93
2018-03-08T01:36:46.200Z,15.98
2018-03-08T01:39:13.772Z,15.82
2018-03-08T01:41:41.910Z,16.17
2018-03-08T01:44:09.473Z,14.27
2018-03-08T01:46:38.272Z,14.47
2018-03-08T01:49:05.830Z,16.45
2018-03-08T01:51:33.404Z,16.90
2018-03-08T01:54:01.789Z,18.77
2018-03-08T01:56:29.362Z,16.50
2018-03-08T01:58:56.942Z,17.13
2018-03-08T02:01:24.881Z,16.93
2018-03-08T02:03:52.795Z,17.48
2018-03-08T02:06:20.776Z,15.20
2018-03-08T02:08:48.314Z,14.63
2018-03-08T02:11:16.289Z,18.00
2018-03-08T02:13:44.272Z,17.02
2018-03-08T02:16:12.338Z,16.63
2018-03-08T02:18:40.357Z,16.87
2018-03-08T02:21:07.927Z,14.02
2018-03-08T02:23:35.518Z,16.53
2018-03-08T02:26:03.968Z,16.57
2018-03-08T02:28:32.162Z,16.43
2018-03-08T02:30:59.784Z,14.20
2018-03-08T02:33:27.660Z,17.20
2018-03-08T02:35:55.208Z,13.57
2018-03-08T02:38:23.096Z,17.00
2018-03-08T02:40:50.633Z,17.53
2018-03-08T02:43:18.162Z,18.50
2018-03-08T02:45:45.756Z,12.57
2018-03-08T02:48:13.322Z,19.63
2018-03-08T02:50:40.867Z,16.02
2018-03-08T02:53:08.949Z,15.18
2018-03-08T02:55:36.532Z,14.57
2018-03-08T02:58:04.083Z,13.60
2018-03-08T03:00:31.874Z,17.42
2018-03-08T03:03:00.016Z,21.00
2018-03-08T03:05:27.729Z,16.57
2018-03-08T03:07:56.477Z,16.83
2018-03-08T03:10:24.061Z,13.62
2018-03-08T03:12:51.653Z,15.43
2018-03-08T03:15:20.077Z,18.37
2018-03-08T03:17:48.165Z,19.20
2018-03-08T03:20:16.652Z,17.40
2018-03-08T03:22:44.598Z,12.00
2018-03-08T03:25:12.151Z,14.83
2018-03-08T03:27:40.543Z,14.20
2018-03-08T03:30:08.108Z,14.60
2018-03-08T03:32:37.346Z,14.85
2018-03-08T03:35:05.781Z,15.55
2018-03-08T03:37:33.363Z,15.20
2018-03-08T03:40:02.288Z,15.85
2018-03-08T03:42:30.770Z,14.10
2018-03-08T03:44:59.435Z,16.55
2018-03-08T03:47:26.972Z,13.30
2018-03-08T03:49:54.942Z,19.12
2018-03-08T03:52:22.512Z,16.37
2018-03-08T03:54:50.064Z,16.73
2018-03-08T03:57:18.026Z,15.30
2018-03-08T03:59:46.212Z,16.80
2018-03-08T04:02:13.763Z,15.05
2018-03-08T04:04:41.360Z,16.20
2018-03-08T04:07:08.910Z,13.63
2018-03-08T04:09:36.478Z,15.77
2018-03-08T04:12:04.036Z,17.33
2018-03-08T04:14:31.602Z,16.27
2018-03-08T04:16:59.181Z,14.00
2018-03-08T04:19:26.753Z,14.13
2018-03-08T04:21:54.316Z,15.37
2018-03-08T04:24:22.585Z,17.60
2018-03-08T04:26:50.125Z,20.27
2018-03-08T04:29:17.670Z,16.63
2018-03-08T04:31:45.213Z,15.77
2018-03-08T04:34:12.741Z,16.73
2018-03-08T04:36:40.333Z,15.13
2018-03-08T04:39:08.848Z,15.80
2018-03-08T04:41:36.413Z,15.90
2018-03-08T04:44:03.974Z,17.10
2018-03-08T04:46:31.546Z,17.57
2018-03-08T04:48:59.097Z,16.73
2018-03-08T04:51:26.676Z,15.33
2018-03-08T04:53:54.283Z,19.27
2018-03-08T04:56:23.141Z,17.23
2018-03-08T04:58:50.690Z,23.15
2018-03-08T05:01:18.311Z,22.73
2018-03-08T05:03:45.872Z,17.15
2018-03-08T05:06:13.414Z,21.95
2018-03-08T05:08:41.758Z,21.20
2018-03-08T05:11:09.347Z,18.60
2018-03-08T05:13:36.949Z,17.53
2018-03-08T05:16:04.534Z,26.93
2018-03-08T05:18:32.961Z,19.77
2018-03-08T05:21:01.396Z,18.77
2018-03-08T05:23:28.993Z,20.70
2018-03-08T05:25:56.585Z,17.73
2018-03-08T05:28:24.214Z,22.10
2018-03-08T05:30:51.784Z,18.05
2018-03-08T05:33:20.165Z,19.37
2018-03-08T05:35:48.322Z,21.20
2018-03-08T05:38:16.225Z,20.20
2018-03-08T05:40:43.897Z,19.43
2018-03-08T05:43:12.320Z,17.40
2018-03-08T05:45:40.309Z,18.98
2018-03-08T05:48:07.881Z,19.40
2018-03-08T05:50:35.543Z,16.13
2018-03-08T05:53:03.989Z,18.45
2018-03-08T05:55:32.408Z,20.80
2018-03-08T05:58:01.044Z,17.70
2018-03-08T06:00:28.620Z,20.80
2018-03-08T06:02:56.754Z,17.43
2018-03-08T06:05:24.736Z,21.15
2018-03-08T06:07:52.280Z,16.50
2018-03-08T06:10:20.609Z,16.30
2018-03-08T06:12:49.026Z,21.50
2018-03-08T06:15:18.213Z,24.10
2018-03-08T06:17:45.803Z,22.02
2018-03-08T06:20:13.373Z,20.73
2018-03-08T06:22:40.961Z,20.80
2018-03-08T06:25:09.361Z,24.30
2018-03-08T06:27:36.902Z,23.17
2018-03-08T06:30:04.481Z,20.77
2018-03-08T06:32:32.079Z,25.40
2018-03-08T06:34:59.709Z,24.03
2018-03-08T06:37:27.765Z,29.98
2018-03-08T06:39:55.361Z,26.43
2018-03-08T06:42:22.910Z,24.87
2018-03-08T06:44:55.407Z,28.90
2018-03-08T06:47:22.990Z,29.80
2018-03-08T06:49:50.545Z,25.40
2018-03-08T06:52:18.124Z,24.37
2018-03-08T06:54:46.507Z,36.63
2018-03-08T06:57:14.299Z,28.13
2018-03-08T06:59:42.161Z,28.58
2018-03-08T07:02:09.822Z,31.02
2018-03-08T07:04:37.338Z,30.73
2018-03-08T07:07:05.553Z,24.43
2018-03-08T07:09:34.763Z,28.03
2018-03-08T07:12:02.288Z,26.40
2018-03-08T07:14:29.879Z,25.07
2018-03-08T07:16:57.430Z,26.67
2018-03-08T07:19:24.983Z,28.97
2018-03-08T07:21:52.552Z,32.87
2018-03-08T07:24:20.139Z,26.93
2018-03-08T07:26:48.582Z,30.03
2018-03-08T07:29:16.120Z,25.73
2018-03-08T07:31:44.649Z,24.12
2018-03-08T07:34:12.282Z,26.43
2018-03-08T07:36:39.853Z,30.73
2018-03-08T07:39:07.411Z,24.40
2018-03-08T07:41:35.898Z,26.77
2018-03-08T07:44:03.462Z,21.10
2018-03-08T07:46:31.057Z,24.10
2018-03-08T07:48:58.658Z,24.93
2018-03-08T07:51:27.030Z,20.33
2018-03-08T07:53:54.661Z,20.07
2018-03-08T07:56:23.109Z,21.93
2018-03-08T07:58:50.666Z,23.10
2018-03-08T08:01:18.252Z,20.77
2018-03-08T08:03:45.799Z,19.87
2018-03-08T08:06:25.169Z,17.13
2018-03-08T08:09:04.838Z,18.75
2018-03-08T08:11:32.394Z,17.48
2018-03-08T08:13:59.924Z,19.03
2018-03-08T08:16:33.922Z,18.20
2018-03-08T08:19:01.506Z,14.85
2018-03-08T08:21:30.089Z,16.17
2018-03-08T08:23:58.975Z,15.90
2018-03-08T08:26:26.528Z,16.30
2018-03-08T08:28:54.145Z,12.57
2018-03-08T08:31:21.706Z,12.95
2018-03-08T08:33:49.279Z,16.03
2018-03-08T08:36:16.828Z,17.95
2018-03-08T08:38:44.406Z,13.47
2018-03-08T08:41:11.948Z,12.00
2018-03-08T08:43:39.541Z,14.73
2018-03-08T08:46:07.137Z,14.40
2018-03-08T08:48:34.701Z,14.60
2018-03-08T08:51:02.566Z,14.47
2018-03-08T08:53:30.377Z,12.90
2018-03-08T08:55:59.249Z,13.80
2018-03-08T08:58:26.812Z,12.40
2018-03-08T09:00:54.415Z,12.55
2018-03-08T09:03:22.393Z,13.53
2018-03-08T09:05:50.016Z,13.50
2018-03-08T09:08:18.621Z,12.70
2018-03-08T09:10:46.609Z,11.43
2018-03-08T09:13:14.534Z,10.97
2018-03-08T09:15:42.108Z,10.80
2018-03-08T09:18:09.655Z,13.20
2018-03-08T09:20:38.857Z,12.30
2018-03-08T09:23:06.973Z,11.13
2018-03-08T09:25:35.533Z,10.90
2018-03-08T09:28:03.638Z,11.40
2018-03-08T09:30:31.176Z,11.20
2018-03-08T09:32:59.188Z,11.25
2018-03-08T09:35:27.013Z,10.82
2018-03-08T09:37:55.574Z,11.10
2018-03-08T09:40:23.817Z,12.35
2018-03-08T09:42:51.415Z,8.32
2018-03-08T09:45:19.723Z,11.30
2018-03-08T09:47:47.648Z,12.80
2018-03-08T09:50:16.528Z,10.83
2018-03-08T09:52:44.562Z,9.93
2018-03-08T09:55:12.502Z,10.70
2018-03-08T09:57:41.260Z,8.80
2018-03-08T10:00:08.805Z,9.93
2018-03-08T10:02:37.511Z,10.47
2018-03-08T10:05:05.074Z,13.17
2018-03-08T10:07:34.090Z,12.10
2018-03-08T10:10:01.676Z,10.13
2018-03-08T10:12:30.094Z,12.27
2018-03-08T10:14:58.063Z,10.67
2018-03-08T10:17:25.808Z,12.43
2018-03-08T10:19:53.395Z,7.30
2018-03-08T10:22:20.970Z,11.75
2018-03-08T10:24:48.554Z,11.13
2018-03-08T10:27:18.376Z,8.43
2018-03-08T10:29:46.325Z,8.97
2018-03-08T10:32:13.931Z,8.83
2018-03-08T10:34:41.490Z,9.33
2018-03-08T10:37:09.487Z,6.90
2018-03-08T10:39:37.063Z,10.75
2018-03-08T10:42:05.456Z,8.85
2018-03-08T10:44:33.039Z,7.47
2018-03-08T10:47:01.008Z,5.50
2018-03-08T10:49:29.047Z,8.17
2018-03-08T10:51:57.485Z,9.50
2018-03-08T10:54:25.089Z,14.80
2018-03-08T10:56:52.646Z,7.55
2018-03-08T10:59:20.193Z,9.97
2018-03-08T11:01:53.668Z,6.68
2018-03-08T11:04:26.969Z,9.13
2018-03-08T11:06:54.491Z,11.87
2018-03-08T11:09:22.092Z,9.63
2018-03-08T11:11:49.654Z,10.43
2018-03-08T11:14:17.542Z,8.98
2018-03-08T11:16:45.843Z,8.15
2018-03-08T11:19:13.438Z,8.23
2018-03-08T11:21:41.033Z,6.47
2018-03-08T11:24:08.662Z,8.68
2018-03-08T11:26:36.256Z,6.13
2018-03-08T12:02:39.526Z,5.35
2018-03-08T12:05:07.094Z,8.40
2018-03-08T12:07:34.710Z,6.10
2018-03-08T12:10:02.272Z,8.57
2018-03-08T12:12:30.286Z,4.20
2018-03-08T12:14:57.903Z,11.67
2018-03-08T12:17:25.877Z,5.53
2018-03-08T12:19:53.790Z,8.17
2018-03-08T12:22:21.706Z,7.07
2018-03-08T12:24:50.724Z,7.30
2018-03-08T12:27:18.266Z,7.00
2018-03-08T12:29:45.827Z,4.05
2018-03-08T12:32:13.465Z,9.27
2018-03-08T12:34:41.018Z,3.87
2018-03-08T12:37:08.556Z,3.67
2018-03-08T12:39:37.030Z,5.30
2018-03-08T12:42:04.546Z,3.43
2018-03-08T12:44:32.870Z,5.43
2018-03-08T12:47:01.562Z,4.03
2018-03-08T12:49:29.213Z,5.03
2018-03-08T12:51:56.761Z,3.90
2018-03-08T12:54:24.839Z,9.57
2018-03-08T12:56:53.375Z,2.70
2018-03-08T12:59:21.351Z,4.82
2018-03-08T13:01:48.896Z,4.87
2018-03-08T13:04:16.845Z,4.13
2018-03-08T13:06:44.360Z,2.77
2018-03-08T13:09:11.932Z,9.93
2018-03-08T13:11:39.574Z,5.70
2018-03-08T13:14:07.050Z,5.13
2018-03-08T13:16:34.626Z,4.68
2018-03-08T13:19:02.205Z,3.30
2018-03-08T13:21:31.064Z,4.82
2018-03-08T13:23:58.611Z,3.43
2018-03-08T13:26:26.166Z,2.40
2018-03-08T13:28:53.782Z,2.40
2018-03-08T13:31:21.304Z,3.20
2018-03-08T13:33:48.915Z,3.67
2018-03-08T13:36:16.466Z,3.57
2018-03-08T13:38:44.427Z,3.53
2018-03-08T13:41:12.009Z,7.13
2018-03-08T13:43:39.964Z,1.80
2018-03-08T13:46:07.902Z,3.40
2018-03-08T13:48:35.462Z,3.45
2018-03-08T13:51:03.121Z,2.00
2018-03-08T13:53:31.198Z,3.12
2018-03-08T13:55:58.766Z,4.12
2018-03-08T13:58:27.185Z,2.47
2018-03-08T14:00:55.149Z,1.80
2018-03-08T14:03:22.732Z,10.95
2018-03-08T14:05:50.432Z,4.60
2018-03-08T14:08:17.970Z,4.60
2018-03-08T14:10:45.514Z,3.33
2018-03-08T14:13:13.086Z,5.37
2018-03-08T14:15:40.650Z,6.70
2018-03-08T14:18:08.218Z,2.47
2018-03-08T14:20:35.917Z,7.20
2018-03-08T14:23:03.905Z,2.70
2018-03-08T14:25:31.469Z,3.97
2018-03-08T14:27:59.001Z,3.57
2018-03-08T14:30:27.480Z,3.07
2018-03-08T14:32:55.429Z,4.10
2018-03-08T14:35:23.554Z,8.37
2018-03-08T14:37:51.124Z,2.07
2018-03-08T14:40:18.767Z,3.93
2018-03-08T14:42:46.339Z,1.60
2018-03-08T14:45:13.909Z,3.30
2018-03-08T14:47:41.461Z,7.30
2018-03-08T14:50:09.013Z,3.23
2018-03-08T14:52:36.575Z,2.80
2018-03-08T14:55:04.159Z,2.50
2018-03-08T14:57:31.736Z,2.73
2018-03-08T14:59:59.300Z,2.10
2018-03-08T15:02:26.826Z,4.67
2018-03-08T15:04:54.395Z,2.73
2018-03-08T15:07:21.976Z,1.70
2018-03-08T15:09:49.545Z,8.10
2018-03-08T15:12:17.143Z,7.80
2018-03-08T15:14:44.701Z,2.50
2018-03-08T15:17:13.229Z,5.05
2018-03-08T15:19:40.811Z,5.13
2018-03-08T15:22:08.333Z,5.37
2018-03-08T15:24:35.896Z,5.53
2018-03-08T15:27:04.025Z,6.00
2018-03-08T15:29:32.034Z,3.20
2018-03-08T15:31:59.546Z,6.00
2018-03-08T15:34:27.519Z,9.53
2018-03-08T15:36:55.472Z,2.77
2018-03-08T15:39:23.030Z,3.80
2018-03-08T15:41:50.586Z,4.83
2018-03-08T15:44:18.135Z,1.70
2018-03-08T15:46:45.706Z,6.55
2018-03-08T15:49:13.256Z,3.60
2018-03-08T15:51:40.829Z,4.47
2018-03-08T15:54:08.385Z,3.67
2018-03-08T15:56:35.950Z,5.87
2018-03-08T15:59:04.373Z,5.07
2018-03-08T16:01:31.978Z,3.60
2018-03-08T16:03:59.503Z,2.17
2018-03-08T16:06:38.988Z,2.93
2018-03-08T16:09:06.666Z,7.93
2018-03-08T16:11:34.220Z,4.77
2018-03-08T16:14:02.142Z,7.33
2018-03-08T16:16:30.665Z,3.50
2018-03-08T16:18:58.236Z,3.77
2018-03-08T16:21:26.157Z,2.78
2018-03-08T16:23:54.165Z,6.47
2018-03-08T16:26:22.116Z,2.07
2018-03-08T16:28:49.666Z,5.03
2018-03-08T16:31:17.228Z,3.60
2018-03-08T16:33:44.807Z,7.17
2018-03-08T16:36:12.370Z,2.00
2018-03-08T16:38:39.943Z,6.35
2018-03-08T16:41:07.946Z,4.57
2018-03-08T16:43:35.531Z,3.50
2018-03-08T16:46:03.126Z,2.70
2018-03-08T16:48:31.069Z,3.23
2018-03-08T16:50:58.603Z,3.70
2018-03-08T16:53:26.158Z,1.57
2018-03-08T16:55:54.650Z,3.30
2018-03-08T16:58:22.226Z,5.00
2018-03-08T17:00:49.777Z,3.20
2018-03-08T17:03:17.365Z,2.33
2018-03-08T17:05:45.393Z,2.17
2018-03-08T17:08:12.963Z,6.03
2018-03-08T17:10:40.526Z,6.10
2018-03-08T17:13:08.096Z,6.57
2018-03-08T17:15:35.664Z,3.60
2018-03-08T17:18:03.201Z,3.20
2018-03-08T17:20:30.739Z,3.67
2018-03-08T17:22:58.294Z,10.40
2018-03-08T17:25:25.890Z,2.90
2018-03-08T17:27:53.456Z,3.47
2018-03-08T17:30:21.026Z,3.90
2018-03-08T17:32:48.563Z,3.78
2018-03-08T17:35:16.134Z,3.30
2018-03-08T17:37:43.716Z,3.97
2018-03-08T17:40:11.671Z,4.50
2018-03-08T17:42:39.252Z,3.50
2018-03-08T17:45:06.784Z,2.47
2018-03-08T17:47:34.326Z,2.37
2018-03-08T17:50:01.887Z,4.90
2018-03-08T17:52:29.490Z,15.27
2018-03-08T17:54:57.039Z,2.63
2018-03-08T17:57:24.595Z,3.77
2018-03-08T17:59:52.220Z,2.33
2018-03-08T18:02:20.128Z,3.45
2018-03-08T18:04:47.672Z,2.97
2018-03-08T18:07:15.227Z,4.83
2018-03-08T18:09:42.792Z,2.50
2018-03-08T18:12:10.351Z,3.50
2018-03-08T18:14:37.921Z,2.20
2018-03-08T18:17:05.459Z,2.20
2018-03-08T18:19:32.987Z,3.00
2018-03-08T18:22:01.223Z,4.72
2018-03-08T18:24:29.215Z,4.07
2018-03-08T18:26:56.816Z,4.50
2018-03-08T18:29:24.383Z,2.97
2018-03-08T18:31:51.958Z,4.60
2018-03-08T18:34:19.550Z,2.40
2018-03-08T18:36:48.176Z,1.10
2018-03-08T18:39:15.752Z,1.50
2018-03-08T18:41:43.307Z,4.80
2018-03-08T18:44:10.894Z,1.20
2018-03-08T18:46:38.450Z,1.30
2018-03-08T18:49:05.988Z,2.40
2018-03-08T18:51:33.541Z,4.17
2018-03-08T18:54:01.877Z,1.13
2018-03-08T18:56:29.467Z,1.50
2018-03-08T18:58:57.028Z,2.33
2018-03-08T19:01:24.670Z,2.10
2018-03-08T19:03:52.225Z,1.40
2018-03-08T19:06:19.794Z,2.45
2018-03-08T19:08:47.434Z,1.30
2018-03-08T19:11:14.982Z,1.50
2018-03-08T19:13:42.937Z,3.60
2018-03-08T19:16:10.515Z,1.20
2018-03-08T19:18:38.052Z,1.55
2018-03-08T19:21:05.638Z,1.30
2018-03-08T19:23:33.611Z,1.30
2018-03-08T19:26:01.616Z,1.57
2018-03-08T19:28:29.168Z,3.03
2018-03-08T19:30:56.810Z,2.58
2018-03-08T19:33:25.037Z,2.65
2018-03-08T19:35:52.876Z,1.23
2018-03-08T19:38:20.863Z,1.93
2018-03-08T19:40:48.880Z,4.03
2018-03-08T19:43:16.831Z,1.93
2018-03-08T19:45:44.409Z,4.10
2018-03-08T19:48:12.375Z,2.23
2018-03-08T19:50:40.336Z,2.70
2018-03-08T19:53:08.318Z,3.83
2018-03-08T19:55:35.947Z,1.67
2018-03-08T19:58:04.330Z,1.33
2018-03-08T20:00:31.896Z,1.93
2018-03-08T20:02:59.437Z,5.03
2018-03-08T20:05:26.983Z,2.30
2018-03-08T20:07:54.529Z,1.87
2018-03-08T20:10:22.090Z,1.50
2018-03-08T20:12:49.714Z,2.83
2018-03-08T20:15:17.683Z,2.60
2018-03-08T20:17:45.654Z,1.87
2018-03-08T20:20:13.520Z,1.73
2018-03-08T20:22:41.482Z,6.40
2018-03-08T20:25:09.399Z,2.60
2018-03-08T20:27:36.991Z,3.78
2018-03-08T20:30:04.566Z,1.85
2018-03-08T20:32:32.130Z,3.10
2018-03-08T20:35:00.077Z,1.77
2018-03-08T20:37:27.869Z,6.18
2018-03-08T20:39:55.492Z,2.27
2018-03-08T20:42:23.065Z,1.40
2018-03-08T20:44:50.640Z,3.93
2018-03-08T20:47:18.617Z,2.70
2018-03-08T20:49:46.572Z,2.67
2018-03-08T20:52:14.977Z,1.83
2018-03-08T20:54:42.961Z,2.60
2018-03-08T20:57:10.521Z,1.57
2018-03-08T20:59:38.468Z,2.37
2018-03-08T21:02:07.191Z,1.83
2018-03-08T21:04:34.757Z,1.80
2018-03-08T21:07:02.352Z,2.23
2018-03-08T21:09:29.982Z,1.93
2018-03-08T21:11:57.522Z,1.60
2018-03-08T21:14:25.071Z,3.63
2018-03-08T21:16:52.665Z,2.73
2018-03-08T21:19:20.231Z,1.93
2018-03-08T21:21:47.786Z,5.53
2018-03-08T21:24:15.330Z,2.63
2018-03-08T21:26:42.937Z,2.27
2018-03-08T21:29:10.493Z,1.80
2018-03-08T21:31:38.042Z,3.03
2018-03-08T21:34:05.679Z,2.67
2018-03-08T21:36:33.170Z,1.40
2018-03-08T21:39:01.003Z,1.45
2018-03-08T21:41:28.567Z,1.98
2018-03-08T21:43:56.155Z,2.23
2018-03-08T21:46:23.696Z,1.55
2018-03-08T21:48:51.776Z,4.97
2018-03-08T21:51:19.406Z,3.03
2018-03-08T21:53:47.065Z,2.07
2018-03-08T21:56:15.141Z,4.00
2018-03-08T21:58:42.689Z,1.70
2018-03-08T22:01:10.226Z,1.60
2018-03-08T22:03:37.772Z,2.40
2018-03-08T22:06:05.759Z,2.97
2018-03-08T22:08:33.271Z,4.30
2018-03-08T22:11:00.807Z,2.43
2018-03-08T22:13:28.399Z,2.27
2018-03-08T22:15:55.967Z,1.97
2018-03-08T22:18:23.513Z,2.65
2018-03-08T22:20:51.744Z,3.10
2018-03-08T22:23:19.295Z,2.13
2018-03-08T22:25:46.932Z,2.77
2018-03-08T22:28:14.496Z,3.53
2018-03-08T22:30:42.436Z,1.70
2018-03-08T22:33:10.244Z,3.00
2018-03-08T22:35:38.353Z,2.70
2018-03-08T22:38:05.924Z,2.73
2018-03-08T22:40:33.499Z,2.03
2018-03-08T22:43:01.124Z,2.80
2018-03-08T22:45:28.905Z,4.20
2018-03-08T22:47:56.478Z,3.43
2018-03-08T22:50:24.022Z,2.93
2018-03-08T22:52:51.646Z,1.90
2018-03-08T22:55:19.641Z,2.10
2018-03-08T22:57:47.348Z,4.90
2018-03-08T23:00:15.848Z,3.27
2018-03-08T23:02:43.769Z,2.43
2018-03-08T23:05:11.343Z,2.15
2018-03-08T23:07:38.913Z,3.33
2018-03-08T23:10:06.464Z,4.60
2018-03-08T23:12:34.046Z,6.07
2018-03-08T23:15:01.598Z,5.18
2018-03-08T23:17:29.575Z,5.10
2018-03-08T23:19:57.124Z,2.73
2018-03-08T23:22:24.693Z,3.08
2018-03-08T23:24:52.423Z,2.33
2018-03-08T23:27:19.975Z,2.57
2018-03-08T23:29:47.497Z,2.53
2018-03-08T23:32:15.682Z,2.50
2018-03-08T23:34:43.240Z,4.63
2018-03-08T23:37:10.765Z,2.55
2018-03-08T23:39:39.899Z,3.10
2018-03-08T23:42:07.461Z,5.90
2018-03-08T23:44:35.021Z,4.00
2018-03-08T23:47:02.972Z,3.57
2018-03-08T23:49:30.548Z,4.07
2018-03-08T23:51:58.183Z,2.70
2018-03-08T23:54:26.208Z,2.17
2018-03-08T23:56:53.855Z,4.47
2018-03-08T23:59:21.833Z,3.00
